Time;durP1;ratioP1;P1;durP2;ratioP2;P2;SDS_P1;SDS_P2;PMS_P1;PMS_P2;Temp;Humidity;BMP_temperature;BMP_pressure;BME280_temperature;BME280_humidity;BME280_pressure;Samples;Min_cycle;Max_cycle;Signal;HPM_P1;HPM_P2
2021/07/25 00:01:05;;;;;;;1.50;0.90;;;19.60;98.20;;;;;;5001867;28;21069;-83
2021/07/25 00:03:31;;;;;;;1.53;0.97;;;19.60;98.20;;;;;;5008522;28;20460;-82
2021/07/25 00:05:58;;;;;;;1.50;0.90;;;19.60;98.20;;;;;;4997337;28;20487;-82
2021/07/25 00:08:25;;;;;;;1.50;0.90;;;19.50;98.20;;;;;;5011108;28;20999;-82
2021/07/25 00:10:53;;;;;;;1.60;1.00;;;19.50;98.20;;;;;;5001325;28;20473;-83
2021/07/25 00:13:20;;;;;;;1.50;0.90;;;19.60;98.20;;;;;;5021561;28;20561;-82
2021/07/25 00:15:47;;;;;;;1.53;0.90;;;19.60;98.20;;;;;;5001133;28;20528;-82
2021/07/25 00:18:14;;;;;;;1.50;0.90;;;19.60;98.20;;;;;;5022387;28;20468;-83
2021/07/25 00:20:41;;;;;;;1.50;0.90;;;19.60;98.20;;;;;;5004059;28;20834;-82
2021/07/25 00:23:08;;;;;;;1.50;0.90;;;19.60;98.20;;;;;;4996804;28;20488;-82
2021/07/25 00:25:35;;;;;;;1.53;0.90;;;19.70;98.20;;;;;;5003245;28;21061;-83
2021/07/25 00:28:05;;;;;;;1.50;0.90;;;19.70;98.20;;;;;;5013473;28;20487;-82
2021/07/25 00:30:31;;;;;;;1.57;1.00;;;19.60;98.20;;;;;;5009788;28;20492;-82
2021/07/25 00:33:00;;;;;;;1.50;0.90;;;19.60;98.20;;;;;;4999375;28;20490;-83
2021/07/25 00:35:26;;;;;;;1.50;0.90;;;19.60;98.20;;;;;;5005404;28;20467;-82
2021/07/25 00:37:53;;;;;;;1.50;0.90;;;19.60;98.20;;;;;;4997999;28;20505;-82
2021/07/25 00:40:29;;;;;;;1.50;0.90;;;19.70;98.20;;;;;;5009123;28;20467;-83
2021/07/25 00:42:55;;;;;;;1.50;0.90;;;19.70;98.20;;;;;;5003750;28;20480;-82
2021/07/25 00:45:23;;;;;;;1.50;0.90;;;19.70;98.20;;;;;;5008174;28;20491;-83
2021/07/25 00:47:50;;;;;;;1.50;0.90;;;19.70;98.20;;;;;;5006223;28;20479;-83
2021/07/25 00:50:17;;;;;;;1.50;0.90;;;19.70;98.20;;;;;;4996306;28;20461;-82
2021/07/25 00:52:45;;;;;;;1.50;0.90;;;19.60;98.20;;;;;;4998631;28;20511;-83
2021/07/25 00:55:13;;;;;;;1.50;0.90;;;19.60;98.20;;;;;;5009083;28;20470;-82
2021/07/25 00:57:40;;;;;;;1.50;0.90;;;19.60;98.20;;;;;;5006249;28;20538;-83
2021/07/25 01:00:10;;;;;;;2.33;1.27;;;19.60;98.20;;;;;;5000926;28;20461;-82
2021/07/25 01:02:42;;;;;;;1.50;0.90;;;19.50;98.20;;;;;;5005593;28;20510;-83
2021/07/25 01:05:15;;;;;;;1.50;0.90;;;19.50;98.20;;;;;;5014541;28;20467;-82
2021/07/25 01:07:50;;;;;;;1.50;1.00;;;19.50;98.20;;;;;;5014808;28;20484;-82
2021/07/25 01:10:19;;;;;;;1.50;0.90;;;19.50;98.20;;;;;;5005720;28;20471;-83
2021/07/25 01:12:52;;;;;;;1.50;0.90;;;19.40;98.20;;;;;;5004921;28;20495;-82
2021/07/25 01:15:24;;;;;;;1.50;0.90;;;19.40;98.20;;;;;;5003467;28;20464;-82
2021/07/25 01:17:54;;;;;;;1.50;0.93;;;19.40;98.20;;;;;;5006959;28;20495;-82
2021/07/25 01:20:23;;;;;;;1.50;0.93;;;19.40;98.20;;;;;;5005014;28;20505;-82
2021/07/25 01:22:51;;;;;;;1.50;1.00;;;19.40;98.20;;;;;;5004020;28;20484;-83
2021/07/25 01:25:20;;;;;;;1.50;1.00;;;19.40;98.20;;;;;;5006818;28;20464;-82
2021/07/25 01:27:52;;;;;;;1.53;0.90;;;19.40;98.20;;;;;;5010848;28;20498;-82
2021/07/25 01:30:22;;;;;;;1.50;0.90;;;19.40;98.20;;;;;;5005059;28;20716;-84
2021/07/25 01:32:51;;;;;;;1.50;0.90;;;19.50;98.20;;;;;;5009329;28;20525;-83
2021/07/25 01:35:19;;;;;;;1.50;0.90;;;19.50;98.20;;;;;;5001839;28;20464;-83
2021/07/25 01:37:50;;;;;;;1.50;0.90;;;19.50;98.20;;;;;;5003443;28;20872;-83
2021/07/25 01:40:20;;;;;;;1.50;0.90;;;19.50;98.20;;;;;;4996549;28;20901;-83
2021/07/25 01:42:47;;;;;;;1.50;0.90;;;19.50;98.20;;;;;;5006876;28;20476;-83
2021/07/25 01:45:14;;;;;;;1.50;0.90;;;19.50;98.20;;;;;;5003953;28;20515;-84
2021/07/25 01:47:45;;;;;;;1.50;0.90;;;19.50;98.20;;;;;;5007718;28;20494;-82
2021/07/25 01:50:35;;;;;;;1.50;0.90;;;19.50;98.20;;;;;;4999257;28;20476;-84
2021/07/25 01:53:06;;;;;;;1.50;0.90;;;19.50;98.20;;;;;;5005897;28;20491;-82
2021/07/25 01:55:33;;;;;;;1.57;0.90;;;19.60;98.20;;;;;;5000240;28;20482;-83
2021/07/25 01:58:00;;;;;;;1.50;0.90;;;19.50;98.20;;;;;;5001272;28;20566;-84
2021/07/25 02:00:51;;;;;;;1.50;0.90;;;19.50;98.20;;;;;;4995756;28;20473;-85
2021/07/25 02:03:26;;;;;;;1.50;0.90;;;19.50;98.20;;;;;;4993332;28;20512;-83
2021/07/25 02:05:53;;;;;;;1.50;0.90;;;19.50;98.20;;;;;;4998816;28;20857;-85
2021/07/25 02:08:25;;;;;;;1.50;0.90;;;19.50;98.20;;;;;;5022202;28;20486;-83
2021/07/25 02:10:54;;;;;;;1.53;0.90;;;19.40;98.20;;;;;;4986649;28;20483;-83
2021/07/25 02:13:22;;;;;;;1.50;0.90;;;19.40;98.20;;;;;;5016291;28;20457;-83
2021/07/25 02:15:50;;;;;;;1.60;1.00;;;19.40;98.20;;;;;;4995184;28;20465;-83
2021/07/25 02:18:20;;;;;;;1.50;0.90;;;19.50;98.20;;;;;;5016184;28;20463;-83
2021/07/25 02:20:49;;;;;;;1.50;0.90;;;19.50;98.20;;;;;;5001825;28;20543;-84
2021/07/25 02:23:16;;;;;;;1.50;1.00;;;19.50;98.20;;;;;;5023419;28;20500;-83
2021/07/25 02:25:44;;;;;;;1.53;0.93;;;19.50;98.20;;;;;;5005716;28;20467;-84
2021/07/25 02:28:14;;;;;;;1.50;0.90;;;19.50;98.20;;;;;;4997559;28;20487;-82
2021/07/25 02:30:41;;;;;;;1.50;0.90;;;19.40;98.20;;;;;;5002252;28;20472;-84
2021/07/25 02:33:08;;;;;;;1.57;0.90;;;19.40;98.20;;;;;;5007575;28;20485;-83
2021/07/25 02:35:35;;;;;;;1.50;0.90;;;19.40;98.20;;;;;;5007684;28;20476;-83
2021/07/25 02:38:02;;;;;;;1.50;0.90;;;19.40;98.20;;;;;;5002433;28;20885;-82
2021/07/25 02:40:29;;;;;;;1.60;1.10;;;19.40;98.20;;;;;;5002741;28;20456;-83
2021/07/25 02:43:00;;;;;;;1.50;0.90;;;19.30;98.20;;;;;;5001418;28;20580;-83
2021/07/25 02:45:26;;;;;;;1.50;0.90;;;19.30;98.20;;;;;;4998047;28;20535;-83
2021/07/25 02:47:55;;;;;;;1.50;1.00;;;19.30;98.20;;;;;;5002513;28;20476;-82
2021/07/25 02:50:22;;;;;;;1.50;0.90;;;19.20;98.20;;;;;;5006625;28;20509;-84
2021/07/25 02:52:49;;;;;;;1.53;1.00;;;19.20;98.20;;;;;;5004284;28;20776;-84
2021/07/25 02:55:16;;;;;;;1.53;1.00;;;19.10;98.20;;;;;;4998027;28;20464;-82
2021/07/25 02:57:42;;;;;;;1.50;0.90;;;19.10;98.20;;;;;;5001169;28;20467;-83
2021/07/25 03:00:12;;;;;;;1.50;0.90;;;19.10;98.20;;;;;;5011986;28;20463;-82
2021/07/25 03:02:39;;;;;;;1.53;0.90;;;19.10;98.20;;;;;;5009425;28;20471;-82
2021/07/25 03:05:06;;;;;;;1.53;0.90;;;19.10;98.20;;;;;;5009570;28;20464;-83
2021/07/25 03:07:34;;;;;;;1.50;0.90;;;19.10;98.20;;;;;;5014540;28;20504;-83
2021/07/25 03:10:01;;;;;;;1.50;0.90;;;19.00;98.20;;;;;;5008725;28;20464;-84
2021/07/25 03:12:28;;;;;;;1.53;0.97;;;19.00;98.20;;;;;;5012503;28;20489;-82
2021/07/25 03:14:55;;;;;;;1.60;1.00;;;19.00;98.20;;;;;;5014513;28;20460;-83
2021/07/25 03:17:26;;;;;;;1.50;0.90;;;19.00;98.20;;;;;;4998113;28;20905;-83
2021/07/25 03:19:52;;;;;;;1.50;0.93;;;19.00;98.20;;;;;;5014140;28;20845;-83
2021/07/25 03:22:20;;;;;;;1.50;0.90;;;18.90;98.20;;;;;;5003022;28;20490;-83
2021/07/25 03:24:47;;;;;;;1.50;0.90;;;18.90;98.20;;;;;;5012538;28;20476;-83
2021/07/25 03:27:14;;;;;;;1.53;0.90;;;18.90;98.20;;;;;;5008397;28;20490;-83
2021/07/25 03:29:41;;;;;;;1.60;1.00;;;18.90;98.20;;;;;;5011197;28;20500;-83
2021/07/25 03:32:08;;;;;;;1.57;0.90;;;18.90;98.20;;;;;;5011695;28;20887;-83
2021/07/25 03:34:40;;;;;;;1.57;0.93;;;18.90;98.20;;;;;;5016833;28;20460;-82
2021/07/25 03:37:15;;;;;;;1.50;1.00;;;18.80;98.20;;;;;;5011099;28;20493;-83
2021/07/25 03:39:47;;;;;;;1.53;1.00;;;18.80;98.20;;;;;;5015896;28;20476;-82
2021/07/25 03:42:19;;;;;;;1.60;1.00;;;18.80;98.20;;;;;;5002353;28;20483;-82
2021/07/25 03:44:55;;;;;;;1.50;1.00;;;18.80;98.20;;;;;;5015157;28;20464;-84
2021/07/25 03:47:24;;;;;;;1.50;0.90;;;18.70;98.20;;;;;;5008075;28;20486;-83
2021/07/25 03:49:53;;;;;;;1.50;0.90;;;18.70;98.20;;;;;;4994271;28;20969;-83
2021/07/25 03:52:23;;;;;;;1.53;1.00;;;18.70;98.20;;;;;;5005006;28;21025;-83
2021/07/25 03:54:50;;;;;;;1.50;0.90;;;18.70;98.20;;;;;;5008074;28;20464;-83
2021/07/25 03:57:17;;;;;;;1.50;0.93;;;18.70;98.20;;;;;;5011703;28;20962;-84
2021/07/25 04:00:29;;;;;;;1.50;0.90;;;18.60;98.20;;;;;;5002861;28;20625;-84
2021/07/25 04:02:56;;;;;;;1.50;0.93;;;18.60;98.20;;;;;;4998084;28;20480;-83
2021/07/25 04:05:27;;;;;;;1.50;0.90;;;18.50;98.20;;;;;;5005208;28;20468;-84
2021/07/25 04:07:54;;;;;;;1.53;1.00;;;18.50;98.20;;;;;;4998290;28;20528;-82
2021/07/25 04:10:22;;;;;;;1.50;1.00;;;18.50;98.20;;;;;;4999179;28;20901;-82
2021/07/25 04:12:49;;;;;;;1.50;0.90;;;18.50;98.20;;;;;;5003778;28;20476;-82
2021/07/25 04:15:16;;;;;;;1.53;0.90;;;18.50;98.20;;;;;;5001392;28;20471;-83
2021/07/25 04:17:43;;;;;;;1.53;1.00;;;18.50;98.20;;;;;;4996085;28;20515;-83
2021/07/25 04:20:10;;;;;;;1.53;0.90;;;18.40;98.20;;;;;;4995787;28;20838;-82
2021/07/25 04:22:40;;;;;;;1.50;0.90;;;18.40;98.20;;;;;;4997069;28;20479;-83
2021/07/25 04:25:08;;;;;;;1.53;1.00;;;18.40;98.20;;;;;;4995718;28;20468;-82
2021/07/25 04:27:35;;;;;;;1.50;0.90;;;18.40;98.20;;;;;;5010558;28;21002;-82
2021/07/25 04:30:06;;;;;;;1.50;1.00;;;18.40;98.20;;;;;;5013500;28;20487;-82
2021/07/25 04:32:33;;;;;;;1.50;0.90;;;18.40;98.20;;;;;;5011559;28;20808;-82
2021/07/25 04:35:00;;;;;;;1.50;0.90;;;18.40;98.20;;;;;;5000657;28;20960;-82
2021/07/25 04:37:29;;;;;;;1.53;1.00;;;18.40;98.20;;;;;;5005175;28;20579;-81
2021/07/25 04:39:58;;;;;;;1.50;1.00;;;18.40;98.20;;;;;;5005371;28;20805;-82
2021/07/25 04:42:27;;;;;;;1.50;0.90;;;18.40;98.20;;;;;;5000096;28;20476;-82
2021/07/25 04:45:03;;;;;;;1.50;0.90;;;18.40;98.20;;;;;;5008489;28;20492;-83
2021/07/25 04:47:36;;;;;;;1.50;0.90;;;18.40;98.20;;;;;;5001915;28;20482;-83
2021/07/25 04:50:06;;;;;;;1.53;0.90;;;18.40;98.20;;;;;;4999865;28;20477;-83
2021/07/25 04:52:39;;;;;;;1.50;0.90;;;18.50;98.20;;;;;;5006516;28;20550;-84
2021/07/25 04:55:10;;;;;;;1.50;0.90;;;18.50;98.20;;;;;;5004582;28;20476;-79
2021/07/25 04:57:40;;;;;;;1.53;0.90;;;18.40;98.20;;;;;;5008142;28;20507;-83
2021/07/25 05:00:09;;;;;;;1.50;1.00;;;18.40;98.20;;;;;;5007315;28;20460;-83
2021/07/25 05:02:39;;;;;;;1.50;0.90;;;18.50;98.20;;;;;;5017656;28;20487;-83
2021/07/25 05:05:07;;;;;;;1.50;0.90;;;18.50;98.20;;;;;;5013989;28;20460;-85
2021/07/25 05:07:36;;;;;;;1.57;1.00;;;18.60;98.20;;;;;;5013957;28;20542;-81
2021/07/25 05:10:04;;;;;;;1.57;1.00;;;18.70;98.20;;;;;;5014629;28;20527;-81
2021/07/25 05:12:37;;;;;;;1.50;0.97;;;18.90;98.20;;;;;;5015238;28;21029;-81
2021/07/25 05:15:07;;;;;;;1.57;1.00;;;19.00;98.20;;;;;;5011849;28;20475;-82
2021/07/25 05:17:41;;;;;;;1.53;1.00;;;19.20;98.20;;;;;;5020805;28;20483;-83
2021/07/25 05:20:14;;;;;;;1.53;0.90;;;19.30;98.20;;;;;;5009326;28;20520;-83
2021/07/25 05:22:43;;;;;;;1.53;0.90;;;19.50;98.20;;;;;;5021562;28;20494;-83
2021/07/25 05:25:11;;;;;;;1.50;0.90;;;19.60;98.20;;;;;;5013049;28;20465;-80
2021/07/25 05:27:44;;;;;;;1.53;0.93;;;19.60;98.20;;;;;;5012767;28;20494;-79
2021/07/25 05:30:14;;;;;;;1.53;0.90;;;19.80;98.20;;;;;;4996633;28;20965;-82
2021/07/25 05:32:41;;;;;;;1.50;0.90;;;19.90;98.20;;;;;;5011973;28;20479;-82
2021/07/25 05:35:08;;;;;;;1.53;0.90;;;20.10;98.20;;;;;;5017378;28;20464;-82
2021/07/25 05:37:35;;;;;;;1.53;0.90;;;20.20;98.20;;;;;;5007014;28;20487;-82
2021/07/25 05:40:02;;;;;;;1.50;0.90;;;20.50;98.20;;;;;;5006435;28;20530;-81
2021/07/25 05:42:29;;;;;;;1.53;0.90;;;20.60;98.20;;;;;;5012803;28;20484;-82
2021/07/25 05:44:57;;;;;;;1.50;0.90;;;20.70;98.20;;;;;;5006455;28;21096;-82
2021/07/25 05:47:24;;;;;;;1.53;0.90;;;20.90;98.20;;;;;;5019295;28;20479;-82
2021/07/25 05:49:51;;;;;;;1.50;1.00;;;20.90;98.20;;;;;;5014720;28;20469;-82
2021/07/25 05:52:18;;;;;;;1.50;0.90;;;21.00;98.20;;;;;;5014408;28;20482;-82
2021/07/25 05:54:45;;;;;;;1.50;0.90;;;21.10;98.20;;;;;;5018168;28;20995;-82
2021/07/25 05:57:12;;;;;;;1.53;0.90;;;21.10;98.20;;;;;;5018545;28;20483;-81
2021/07/25 05:59:39;;;;;;;1.57;0.90;;;21.20;98.20;;;;;;5014986;28;20843;-82
2021/07/25 06:02:07;;;;;;;1.50;0.90;;;21.40;98.20;;;;;;5018569;28;20490;-81
2021/07/25 06:04:34;;;;;;;1.50;0.90;;;21.50;98.20;;;;;;5029443;28;20706;-82
2021/07/25 06:07:01;;;;;;;1.53;0.93;;;21.50;98.20;;;;;;5027886;28;20490;-82
2021/07/25 06:09:28;;;;;;;1.50;0.90;;;21.70;98.20;;;;;;5021059;28;20492;-81
2021/07/25 06:11:56;;;;;;;1.53;0.90;;;21.80;98.20;;;;;;5021169;28;20526;-80
2021/07/25 06:14:23;;;;;;;1.53;0.90;;;21.90;98.20;;;;;;5018099;28;20466;-81
2021/07/25 06:16:50;;;;;;;1.53;0.90;;;22.10;98.20;;;;;;5026259;28;20559;-81
2021/07/25 06:19:18;;;;;;;1.50;0.90;;;22.20;98.20;;;;;;5019748;28;20473;-82
2021/07/25 06:21:45;;;;;;;1.50;0.90;;;22.40;98.20;;;;;;5014804;28;20474;-81
2021/07/25 06:24:11;;;;;;;1.50;0.90;;;22.60;98.20;;;;;;5027013;28;20513;-81
2021/07/25 06:26:38;;;;;;;1.57;1.07;;;22.80;98.20;;;;;;5022617;28;20536;-81
2021/07/25 06:29:05;;;;;;;1.60;1.07;;;22.90;98.20;;;;;;5027723;28;20461;-81
2021/07/25 06:31:32;;;;;;;1.53;0.90;;;23.00;98.20;;;;;;5009370;28;20562;-79
2021/07/25 06:33:58;;;;;;;1.53;0.90;;;23.20;98.20;;;;;;5025445;28;20460;-82
2021/07/25 06:36:27;;;;;;;1.57;0.90;;;23.30;98.20;;;;;;5007720;28;20469;-80
2021/07/25 06:38:53;;;;;;;1.57;0.90;;;23.50;97.30;;;;;;5030964;28;20948;-82
2021/07/25 06:41:20;;;;;;;1.53;0.90;;;23.60;97.40;;;;;;5013228;28;20499;-82
2021/07/25 06:43:47;;;;;;;1.53;0.90;;;23.80;97.20;;;;;;5030562;28;20545;-82
2021/07/25 06:46:14;;;;;;;1.53;0.90;;;23.90;96.00;;;;;;5017683;28;20491;-80
2021/07/25 06:48:41;;;;;;;1.50;0.90;;;24.10;95.10;;;;;;5034780;28;20573;-81
2021/07/25 06:51:07;;;;;;;1.53;0.90;;;24.20;94.10;;;;;;5012084;28;20608;-81
2021/07/25 06:53:36;;;;;;;1.53;0.90;;;24.30;95.00;;;;;;5032673;28;20469;-82
2021/07/25 06:56:08;;;;;;;1.53;0.90;;;24.50;94.30;;;;;;5009575;28;20459;-82
2021/07/25 06:58:35;;;;;;;1.50;0.90;;;24.60;94.00;;;;;;5033340;28;20553;-81
2021/07/25 07:01:02;;;;;;;1.53;0.90;;;24.70;92.70;;;;;;5011201;28;20540;-80
2021/07/25 07:03:29;;;;;;;1.50;0.90;;;24.80;93.60;;;;;;5035521;28;20484;-81
2021/07/25 07:05:56;;;;;;;1.50;0.87;;;25.00;93.20;;;;;;5009674;28;20533;-83
2021/07/25 07:08:23;;;;;;;1.50;0.83;;;25.20;92.00;;;;;;5034581;28;20472;-79
2021/07/25 07:10:51;;;;;;;1.57;0.87;;;25.30;90.50;;;;;;5005797;28;20461;-80
2021/07/25 07:13:19;;;;;;;1.53;0.90;;;25.20;91.20;;;;;;5038668;28;20542;-79
2021/07/25 07:15:48;;;;;;;1.50;0.90;;;25.40;91.70;;;;;;5026607;28;20457;-79
2021/07/25 07:18:15;;;;;;;1.50;0.90;;;25.60;89.90;;;;;;5031998;28;20469;-80
2021/07/25 07:20:42;;;;;;;1.53;0.87;;;25.80;90.30;;;;;;5012536;28;20468;-80
2021/07/25 07:23:11;;;;;;;1.60;1.00;;;25.90;89.90;;;;;;5010151;28;20487;-80
2021/07/25 07:25:39;;;;;;;1.50;0.90;;;25.90;90.20;;;;;;5007456;28;20775;-82
2021/07/25 07:28:14;;;;;;;1.50;0.90;;;25.90;90.10;;;;;;5017606;28;20533;-80
2021/07/25 07:30:42;;;;;;;1.57;0.90;;;25.90;90.40;;;;;;5013292;28;20547;-79
2021/07/25 07:33:10;;;;;;;1.70;1.10;;;25.80;90.30;;;;;;5030347;28;20476;-81
2021/07/25 07:35:38;;;;;;;1.50;0.87;;;26.00;90.40;;;;;;5026974;28;20770;-82
2021/07/25 07:38:05;;;;;;;1.60;0.90;;;26.10;89.40;;;;;;5025096;28;20503;-81
2021/07/25 07:40:32;;;;;;;1.57;0.83;;;26.20;89.60;;;;;;5013577;28;20491;-80
2021/07/25 07:42:59;;;;;;;1.50;0.90;;;26.30;89.40;;;;;;5016887;28;20488;-79
2021/07/25 07:45:28;;;;;;;1.50;0.90;;;26.30;89.10;;;;;;5014118;28;20464;-81
2021/07/25 07:47:55;;;;;;;1.50;0.80;;;26.50;88.70;;;;;;5031186;28;20478;-80
2021/07/25 07:50:22;;;;;;;1.57;0.80;;;26.70;87.90;;;;;;5009322;28;20437;-82
2021/07/25 07:52:50;;;;;;;1.50;0.90;;;26.80;88.10;;;;;;5006773;28;20484;-80
2021/07/25 07:55:54;;;;;;;1.50;0.90;;;26.70;86.70;;;;;;5019896;28;20465;-82
2021/07/25 08:01:45;;;;;;;1.50;0.80;;;26.80;86.70;;;;;;4981482;28;20843;-81
2021/07/25 08:04:12;;;;;;;1.53;0.90;;;26.90;86.50;;;;;;5013359;28;20467;-81
2021/07/25 08:06:39;;;;;;;1.50;0.80;;;26.80;83.80;;;;;;5013017;28;20551;-81
2021/07/25 08:09:06;;;;;;;1.50;0.83;;;26.90;83.30;;;;;;5013384;28;21108;-81
2021/07/25 08:11:43;;;;;;;1.50;0.80;;;27.10;84.10;;;;;;5000204;28;20489;-83
2021/07/25 08:14:11;;;;;;;1.50;0.80;;;27.30;83.50;;;;;;5023007;28;20470;-82
2021/07/25 08:16:39;;;;;;;1.50;0.80;;;27.50;82.60;;;;;;5003387;28;20479;-82
2021/07/25 08:19:08;;;;;;;1.50;0.80;;;27.60;82.00;;;;;;5016978;28;20456;-82
2021/07/25 08:21:35;;;;;;;1.50;0.80;;;27.70;83.10;;;;;;5011021;28;20475;-80
2021/07/25 08:24:02;;;;;;;1.57;0.90;;;27.80;83.20;;;;;;5021670;28;20506;-82
2021/07/25 08:26:29;;;;;;;1.50;0.80;;;27.90;83.00;;;;;;5010748;28;20561;-82
2021/07/25 08:28:56;;;;;;;1.50;0.80;;;28.00;82.20;;;;;;5019809;28;21014;-81
2021/07/25 08:31:22;;;;;;;1.50;0.80;;;28.20;82.20;;;;;;5008361;28;20482;-81
2021/07/25 08:33:49;;;;;;;1.53;0.80;;;28.20;81.50;;;;;;5011507;28;20535;-81
2021/07/25 08:36:17;;;;;;;1.53;0.80;;;28.30;81.60;;;;;;4996165;28;20496;-81
2021/07/25 08:38:45;;;;;;;1.50;0.80;;;28.30;81.00;;;;;;5007600;28;20579;-81
2021/07/25 08:41:13;;;;;;;1.53;0.90;;;28.30;80.80;;;;;;4988715;28;21042;-80
2021/07/25 08:43:42;;;;;;;1.53;0.80;;;28.20;80.90;;;;;;5016926;28;20464;-82
2021/07/25 08:46:15;;;;;;;1.60;1.00;;;28.30;80.80;;;;;;4986992;28;20514;-79
2021/07/25 08:48:46;;;;;;;1.50;0.90;;;28.40;80.50;;;;;;5012868;28;20487;-84
2021/07/25 08:51:18;;;;;;;1.50;0.80;;;28.40;81.00;;;;;;4988849;28;20484;-80
2021/07/25 08:54:00;;;;;;;1.50;0.80;;;28.60;81.10;;;;;;5004006;28;20471;-85
2021/07/25 08:56:31;;;;;;;1.50;0.90;;;28.70;79.70;;;;;;5002426;28;20486;-81
2021/07/25 08:59:00;;;;;;;1.50;0.90;;;28.70;80.20;;;;;;5012557;28;20470;-81
2021/07/25 09:01:34;;;;;;;1.50;0.80;;;28.80;80.00;;;;;;4990812;28;20483;-82
2021/07/25 09:04:02;;;;;;;1.50;0.80;;;29.00;80.50;;;;;;5005543;28;20467;-80
2021/07/25 09:06:40;;;;;;;1.50;0.80;;;29.10;79.60;;;;;;4998923;28;20997;-83
2021/07/25 09:09:07;;;;;;;1.50;0.80;;;29.30;78.90;;;;;;5003094;28;20491;-79
2021/07/25 09:11:36;;;;;;;1.50;0.80;;;29.30;78.90;;;;;;4997427;28;20486;-80
2021/07/25 09:14:03;;;;;;;1.50;0.80;;;29.40;79.00;;;;;;5008681;28;20968;-83
2021/07/25 09:16:31;;;;;;;1.50;0.90;;;29.50;77.50;;;;;;4993765;28;20954;-83
2021/07/25 09:18:58;;;;;;;1.50;0.80;;;29.50;78.50;;;;;;5005018;28;20463;-82
2021/07/25 09:21:42;;;;;;;1.50;0.87;;;29.60;78.60;;;;;;4990987;28;20507;-81
2021/07/25 09:24:17;;;;;;;1.50;0.80;;;29.60;77.70;;;;;;5010269;28;20879;-82
2021/07/25 09:26:52;;;;;;;1.50;0.80;;;29.70;77.70;;;;;;5006020;28;20490;-82
2021/07/25 09:29:21;;;;;;;1.50;0.80;;;29.70;78.40;;;;;;5013865;28;20575;-82
2021/07/25 09:31:48;;;;;;;1.50;0.80;;;29.90;76.90;;;;;;4999671;28;20502;-77
2021/07/25 09:34:36;;;;;;;1.50;0.80;;;30.00;77.00;;;;;;5010986;28;20480;-78
2021/07/25 09:37:12;;;;;;;1.50;0.80;;;30.10;75.10;;;;;;5003726;28;20810;-78
2021/07/25 09:39:41;;;;;;;1.50;0.80;;;30.20;74.60;;;;;;5000995;28;20459;-77
2021/07/25 09:42:09;;;;;;;1.50;0.80;;;30.10;73.80;;;;;;5005435;28;20486;-79
2021/07/25 09:44:51;;;;;;;1.50;0.80;;;30.00;76.00;;;;;;5007846;28;20507;-80
2021/07/25 09:47:33;;;;;;;1.50;0.80;;;30.00;75.30;;;;;;5008584;28;20574;-77
2021/07/25 09:50:02;;;;;;;1.50;0.83;;;30.20;75.00;;;;;;5012222;28;20487;-81
2021/07/25 09:52:32;;;;;;;1.50;0.80;;;30.30;75.40;;;;;;5000662;28;20570;-81
2021/07/25 09:55:00;;;;;;;1.50;0.80;;;30.40;75.20;;;;;;4991942;28;20464;-79
2021/07/25 09:57:28;;;;;;;1.50;0.80;;;30.20;74.30;;;;;;5005970;28;20514;-80
2021/07/25 09:59:55;;;;;;;1.50;0.80;;;30.00;74.40;;;;;;5010180;28;20506;-80
2021/07/25 10:02:38;;;;;;;1.50;0.80;;;29.90;74.30;;;;;;5001917;28;20608;-79
2021/07/25 10:05:13;;;;;;;1.50;0.80;;;29.80;74.50;;;;;;4997042;28;20480;-80
2021/07/25 10:07:42;;;;;;;1.50;0.80;;;29.80;75.10;;;;;;4999008;28;20484;-81
2021/07/25 10:10:11;;;;;;;1.50;0.80;;;29.90;74.90;;;;;;5002949;28;20483;-80
2021/07/25 10:12:40;;;;;;;1.47;0.80;;;30.10;75.50;;;;;;5002410;28;21025;-82
2021/07/25 10:15:11;;;;;;;1.50;0.80;;;30.30;74.30;;;;;;5002789;28;20475;-79
2021/07/25 10:17:39;;;;;;;1.50;0.80;;;30.60;74.10;;;;;;5007525;28;20530;-81
2021/07/25 10:20:07;;;;;;;1.50;0.80;;;30.90;73.90;;;;;;4998348;28;20455;-81
2021/07/25 10:22:36;;;;;;;1.50;0.80;;;31.20;72.00;;;;;;5004694;28;20490;-79
2021/07/25 10:25:07;;;;;;;1.50;0.80;;;31.30;71.30;;;;;;5001860;28;20468;-84
2021/07/25 10:27:35;;;;;;;1.50;0.80;;;31.50;72.40;;;;;;5005559;28;20236;-81
2021/07/25 10:30:05;;;;;;;1.50;0.80;;;31.60;72.00;;;;;;5002437;28;20480;-80
2021/07/25 10:32:35;;;;;;;1.50;0.80;;;31.30;76.30;;;;;;4999249;28;20479;-78
2021/07/25 10:35:07;;;;;;;1.50;0.80;;;30.90;79.40;;;;;;5006141;28;20471;-79
2021/07/25 10:37:39;;;;;;;1.50;0.80;;;30.50;80.40;;;;;;4997999;28;20942;-78
2021/07/25 10:40:16;;;;;;;1.50;0.80;;;30.00;81.20;;;;;;5001978;28;21251;-80
2021/07/25 10:42:55;;;;;;;1.50;0.80;;;29.60;81.00;;;;;;5004121;28;20494;-80
2021/07/25 10:45:35;;;;;;;1.50;0.80;;;29.20;79.70;;;;;;5000617;28;20489;-80
2021/07/25 10:48:18;;;;;;;1.50;0.80;;;28.80;80.20;;;;;;5005496;28;20608;-79
2021/07/25 10:51:21;;;;;;;1.50;0.80;;;28.50;81.00;;;;;;5000002;28;20464;-80
2021/07/25 10:54:02;;;;;;;1.50;0.80;;;28.30;81.70;;;;;;5012082;28;20511;-80
2021/07/25 10:57:11;;;;;;;1.50;0.90;;;28.00;80.80;;;;;;5002009;28;20487;-81
2021/07/25 11:02:58;;;;;;;1.50;0.80;;;27.50;80.50;;;;;;4997438;28;20545;-78
2021/07/25 11:05:56;;;;;;;1.50;0.80;;;27.30;81.30;;;;;;4993900;28;20549;-79
2021/07/25 11:08:36;;;;;;;1.50;0.90;;;27.20;80.90;;;;;;4989279;28;20482;-80
2021/07/25 11:11:39;;;;;;;1.50;0.80;;;27.40;82.80;;;;;;4991341;28;20467;-79
2021/07/25 11:14:11;;;;;;;1.50;0.90;;;27.60;82.10;;;;;;4991613;28;20468;-79
2021/07/25 11:16:46;;;;;;;1.50;0.80;;;27.90;81.30;;;;;;4993452;28;21088;-79
2021/07/25 11:19:47;;;;;;;1.50;0.80;;;28.30;79.10;;;;;;5008498;28;20465;-81
2021/07/25 11:22:43;;;;;;;1.50;0.80;;;28.80;76.00;;;;;;4999552;28;20577;-83
2021/07/25 11:25:10;;;;;;;1.50;0.90;;;29.30;75.00;;;;;;5011476;28;20535;-81
2021/07/25 11:27:47;;;;;;;1.50;0.80;;;29.70;72.40;;;;;;5000597;28;20498;-82
2021/07/25 11:30:54;;;;;;;1.50;0.80;;;30.00;73.90;;;;;;4995010;28;20492;-81
2021/07/25 11:33:54;;;;;;;1.50;0.80;;;30.20;71.60;;;;;;4988834;28;20568;-81
2021/07/25 11:36:23;;;;;;;1.50;0.80;;;30.50;72.00;;;;;;4927927;29;20816;-80
2021/07/25 11:38:55;;;;;;;1.50;0.80;;;30.60;72.80;;;;;;4941507;29;20566;-80
2021/07/25 11:41:26;;;;;;;1.50;0.90;;;30.80;73.30;;;;;;4958664;28;20536;-81
2021/07/25 11:43:56;;;;;;;1.50;0.80;;;31.10;72.50;;;;;;5006424;28;20494;-81
2021/07/25 11:46:30;;;;;;;1.50;0.80;;;31.30;72.40;;;;;;4991727;28;21124;-84
2021/07/25 11:49:19;;;;;;;1.50;0.80;;;31.30;70.40;;;;;;5000790;28;20721;-82
2021/07/25 11:51:58;;;;;;;1.50;0.80;;;31.30;70.80;;;;;;4989251;28;20228;-81
2021/07/25 11:54:27;;;;;;;1.50;0.80;;;31.40;70.80;;;;;;5004929;28;20204;-81
2021/07/25 11:57:02;;;;;;;1.43;0.80;;;31.60;71.20;;;;;;4995980;28;20239;-81
2021/07/25 11:59:31;;;;;;;1.50;0.80;;;31.90;70.40;;;;;;4998638;28;20535;-82
2021/07/25 12:02:00;;;;;;;1.50;0.80;;;32.00;68.70;;;;;;4985951;28;20234;-82
2021/07/25 12:04:29;;;;;;;1.40;0.80;;;32.10;69.20;;;;;;4991495;28;20220;-83
2021/07/25 12:07:15;;;;;;;1.50;0.80;;;32.10;67.50;;;;;;4993684;28;20242;-82
2021/07/25 12:09:44;;;;;;;1.50;0.80;;;32.10;69.50;;;;;;5001070;28;20673;-84
2021/07/25 12:12:14;;;;;;;1.50;0.80;;;32.30;70.00;;;;;;5000566;28;20243;-79
2021/07/25 12:14:44;;;;;;;1.47;0.80;;;32.20;68.10;;;;;;4998890;28;20255;-81
2021/07/25 12:17:13;;;;;;;1.47;0.80;;;32.10;68.90;;;;;;4995356;28;20232;-83
2021/07/25 12:19:42;;;;;;;1.50;0.80;;;32.00;69.20;;;;;;5013699;28;20648;-83
2021/07/25 12:22:18;;;;;;;1.47;0.80;;;31.90;68.70;;;;;;4987966;28;20236;-81
2021/07/25 12:24:56;;;;;;;1.47;0.80;;;31.20;69.90;;;;;;4999636;28;20208;-82
2021/07/25 12:27:31;;;;;;;1.47;0.80;;;30.70;70.60;;;;;;5000077;28;20432;-83
2021/07/25 12:30:19;;;;;;;1.50;0.93;;;30.30;71.40;;;;;;5003529;28;20602;-82
2021/07/25 12:32:47;;;;;;;1.47;0.80;;;30.10;72.50;;;;;;4994817;28;20474;-81
2021/07/25 12:35:25;;;;;;;1.50;0.80;;;30.10;72.00;;;;;;5000348;28;20483;-83
2021/07/25 12:38:11;;;;;;;1.50;0.83;;;30.20;72.50;;;;;;5007587;28;20635;-82
2021/07/25 12:40:49;;;;;;;1.47;0.90;;;30.50;70.70;;;;;;5005593;28;20456;-80
2021/07/25 12:43:19;;;;;;;1.43;0.80;;;30.60;72.10;;;;;;4984212;28;20495;-78
2021/07/25 12:45:48;;;;;;;1.47;0.80;;;30.70;71.30;;;;;;4996280;28;20843;-82
2021/07/25 12:48:29;;;;;;;1.50;0.80;;;30.80;71.00;;;;;;5012928;28;20221;-80
2021/07/25 12:51:02;;;;;;;1.47;0.80;;;30.90;71.80;;;;;;4987030;28;20229;-82
2021/07/25 12:53:40;;;;;;;1.47;0.80;;;31.30;70.60;;;;;;5010339;28;20213;-82
2021/07/25 12:56:08;;;;;;;1.43;0.87;;;31.80;70.80;;;;;;4988993;28;20393;-81
2021/07/25 12:58:38;;;;;;;1.47;0.80;;;32.00;69.30;;;;;;5009667;28;20209;-80
2021/07/25 13:03:58;;;;;;;1.50;0.87;;;31.40;69.90;;;;;;5013375;28;20291;-83
2021/07/25 13:06:28;;;;;;;1.47;0.80;;;31.10;70.30;;;;;;4995575;28;20242;-84
2021/07/25 13:08:56;;;;;;;1.43;0.80;;;31.10;71.40;;;;;;5007384;28;20279;-81
2021/07/25 13:11:24;;;;;;;1.50;1.00;;;31.10;70.70;;;;;;4993074;28;20232;-82
2021/07/25 13:13:52;;;;;;;1.47;0.80;;;31.20;70.80;;;;;;5013001;28;20201;-83
2021/07/25 13:16:20;;;;;;;1.47;0.80;;;31.50;71.10;;;;;;4998222;28;20240;-82